Time;durP1;ratioP1;P1;durP2;ratioP2;P2;SDS_P1;SDS_P2;PMS_P1;PMS_P2;Temp;Humidity;BMP_temperature;BMP_pressure;BME280_temperature;BME280_humidity;BME280_pressure;Samples;Min_cycle;Max_cycle;Signal;HPM_P1;HPM_P2
2023/09/14 00:00:51;;;;;;;6.55;5.07;;;20.80;67.50;;;;;;5103633;28;20106;-61
2023/09/14 00:03:17;;;;;;;6.10;4.97;;;20.80;67.70;;;;;;5102352;28;20028;-62
2023/09/14 00:05:44;;;;;;;9.65;5.80;;;20.70;67.60;;;;;;5104038;28;20498;-61
2023/09/14 00:08:10;;;;;;;6.35;5.68;;;20.70;67.80;;;;;;5100518;28;20081;-62
2023/09/14 00:10:40;;;;;;;6.25;5.38;;;20.70;68.10;;;;;;5105644;28;20553;-61
2023/09/14 00:13:06;;;;;;;7.18;4.85;;;20.70;68.30;;;;;;5105116;28;20023;-62
2023/09/14 00:15:33;;;;;;;6.10;4.80;;;20.70;68.20;;;;;;5089806;28;20038;-62
2023/09/14 00:17:58;;;;;;;7.05;5.13;;;20.60;68.30;;;;;;5089904;28;20027;-61
2023/09/14 00:20:26;;;;;;;7.47;4.53;;;20.60;68.40;;;;;;5110795;28;20076;-61
2023/09/14 00:22:56;;;;;;;6.43;5.32;;;20.60;68.40;;;;;;5112154;28;20028;-62
2023/09/14 00:25:23;;;;;;;5.30;4.80;;;20.60;68.70;;;;;;5108209;28;20054;-61
2023/09/14 00:27:50;;;;;;;6.90;5.38;;;20.60;68.50;;;;;;5104657;28;20020;-61
2023/09/14 00:30:15;;;;;;;8.27;5.43;;;20.60;68.50;;;;;;5111119;28;20051;-59
2023/09/14 00:32:42;;;;;;;10.90;4.95;;;20.60;68.50;;;;;;5108060;28;20069;-61
2023/09/14 00:35:12;;;;;;;7.40;5.90;;;20.60;68.50;;;;;;5107826;28;20091;-62
2023/09/14 00:37:38;;;;;;;9.13;5.80;;;20.60;68.60;;;;;;5109248;28;20051;-62
2023/09/14 00:40:07;;;;;;;6.60;4.53;;;20.60;68.70;;;;;;5107372;28;20042;-64
2023/09/14 00:42:43;;;;;;;5.93;4.28;;;20.50;68.70;;;;;;5101523;28;20079;-62
2023/09/14 00:45:12;;;;;;;4.57;3.97;;;20.60;69.10;;;;;;5092396;28;20027;-62
2023/09/14 00:47:40;;;;;;;6.28;3.85;;;20.50;68.60;;;;;;5117711;27;20035;-62
2023/09/14 00:50:07;;;;;;;5.85;4.03;;;20.50;68.70;;;;;;5108118;27;20035;-62
2023/09/14 00:52:35;;;;;;;5.93;4.13;;;20.50;68.80;;;;;;5108381;27;20023;-62
2023/09/14 00:55:04;;;;;;;9.10;4.25;;;20.50;68.90;;;;;;5115555;27;20097;-62
2023/09/14 00:57:30;;;;;;;5.90;4.30;;;20.50;68.90;;;;;;5107214;28;20053;-62
2023/09/14 00:59:56;;;;;;;6.68;4.38;;;20.50;69.00;;;;;;5108213;28;20024;-61
2023/09/14 01:02:21;;;;;;;6.75;4.85;;;20.40;69.10;;;;;;5105437;27;20027;-62
2023/09/14 01:04:48;;;;;;;5.55;4.22;;;20.40;69.20;;;;;;5107300;27;20063;-62
2023/09/14 01:07:18;;;;;;;7.28;4.47;;;20.40;69.30;;;;;;5103907;27;20073;-62
2023/09/14 01:09:44;;;;;;;6.45;4.72;;;20.40;69.40;;;;;;5103469;27;20015;-61
2023/09/14 01:12:10;;;;;;;5.72;4.65;;;20.40;69.50;;;;;;5106792;28;20039;-61
2023/09/14 01:14:48;;;;;;;7.00;4.88;;;20.40;69.50;;;;;;5085795;28;20401;-61
2023/09/14 01:17:21;;;;;;;10.15;5.75;;;20.40;70.00;;;;;;5093380;28;20037;-61
2023/09/14 01:20:04;;;;;;;5.97;5.13;;;20.40;69.70;;;;;;5112479;27;20034;-62
2023/09/14 01:22:58;;;;;;;8.25;5.18;;;20.40;70.20;;;;;;5088142;28;20367;-62
2023/09/14 01:25:45;;;;;;;5.65;4.32;;;20.40;70.90;;;;;;5110479;27;20019;-62
2023/09/14 01:28:12;;;;;;;5.28;3.85;;;20.40;70.00;;;;;;5103370;27;20027;-61
2023/09/14 01:30:38;;;;;;;4.68;3.97;;;20.40;69.50;;;;;;5110411;27;20103;-61
2023/09/14 01:33:09;;;;;;;4.35;3.78;;;20.40;69.50;;;;;;5106476;27;20046;-62
2023/09/14 01:35:41;;;;;;;6.72;4.35;;;20.40;69.90;;;;;;5108515;27;20027;-61
2023/09/14 01:38:06;;;;;;;4.93;4.15;;;20.40;69.80;;;;;;5107327;28;20020;-62
2023/09/14 01:40:34;;;;;;;5.57;4.18;;;20.50;69.70;;;;;;5109385;27;20024;-62
2023/09/14 01:43:02;;;;;;;4.97;3.67;;;20.50;69.70;;;;;;5110005;27;20036;-62
2023/09/14 01:45:28;;;;;;;7.82;3.83;;;20.50;69.70;;;;;;5109274;27;20015;-62
2023/09/14 01:47:56;;;;;;;5.07;3.80;;;20.40;69.60;;;;;;5120620;27;20027;-61
2023/09/14 01:50:21;;;;;;;5.88;4.65;;;20.50;69.80;;;;;;5109323;27;20019;-62
2023/09/14 01:52:49;;;;;;;5.50;4.13;;;20.50;69.60;;;;;;5112436;27;20511;-63
2023/09/14 01:55:16;;;;;;;7.10;4.32;;;20.50;69.60;;;;;;5109681;27;20039;-63
2023/09/14 01:57:42;;;;;;;6.25;4.45;;;20.50;69.50;;;;;;5106520;27;20107;-62
2023/09/14 02:00:08;;;;;;;7.22;4.72;;;20.40;69.50;;;;;;5101997;27;20099;-62
2023/09/14 02:02:34;;;;;;;6.22;4.75;;;20.40;69.30;;;;;;5098618;28;20031;-61
2023/09/14 02:04:59;;;;;;;6.05;4.75;;;20.50;69.30;;;;;;5082861;28;20028;-61
2023/09/14 02:07:25;;;;;;;8.10;4.47;;;20.40;69.30;;;;;;5114517;27;20040;-62
2023/09/14 02:09:52;;;;;;;8.60;5.10;;;20.40;69.40;;;;;;5107215;27;20034;-62
2023/09/14 02:12:18;;;;;;;5.57;4.72;;;20.40;69.50;;;;;;5103798;28;20054;-63
2023/09/14 02:14:43;;;;;;;8.15;4.93;;;20.40;69.50;;;;;;5105715;27;20382;-61
2023/09/14 02:17:09;;;;;;;6.30;4.45;;;20.30;69.40;;;;;;5105956;27;20038;-62
2023/09/14 02:19:34;;;;;;;5.93;4.90;;;20.40;69.50;;;;;;5104920;27;20114;-61
2023/09/14 02:22:00;;;;;;;8.13;5.45;;;20.40;69.50;;;;;;5106410;27;20486;-64
2023/09/14 02:24:26;;;;;;;7.70;4.85;;;20.30;69.60;;;;;;5116373;27;20039;-63
2023/09/14 02:26:54;;;;;;;7.97;5.18;;;20.30;69.70;;;;;;5109032;27;20482;-63
2023/09/14 02:29:20;;;;;;;7.90;4.80;;;20.30;69.60;;;;;;5104071;27;20020;-63
2023/09/14 02:31:45;;;;;;;5.93;4.97;;;20.30;69.80;;;;;;5109556;27;20016;-62
2023/09/14 02:34:11;;;;;;;7.47;5.45;;;20.20;69.90;;;;;;5108936;27;20020;-62
2023/09/14 02:36:38;;;;;;;7.50;4.97;;;20.20;70.00;;;;;;5109428;27;20442;-62
2023/09/14 02:39:04;;;;;;;9.00;5.40;;;20.20;70.10;;;;;;5109571;27;20070;-61
2023/09/14 02:41:30;;;;;;;8.90;4.97;;;20.20;70.20;;;;;;5090465;28;20035;-63
2023/09/14 02:43:56;;;;;;;7.85;4.70;;;20.20;70.30;;;;;;5109326;27;20082;-62
2023/09/14 02:46:21;;;;;;;10.05;5.95;;;20.10;70.30;;;;;;5102127;28;20374;-61
2023/09/14 02:48:47;;;;;;;8.68;5.50;;;20.20;71.20;;;;;;5107738;27;20088;-62
2023/09/14 02:51:13;;;;;;;9.35;5.85;;;20.10;70.40;;;;;;5104702;27;20042;-62
2023/09/14 02:53:38;;;;;;;10.90;5.50;;;20.10;70.60;;;;;;5107495;27;20038;-62
2023/09/14 02:56:10;;;;;;;9.43;5.93;;;20.10;70.70;;;;;;5107672;27;20038;-61
2023/09/14 02:58:37;;;;;;;7.85;5.97;;;20.10;71.00;;;;;;5112104;27;20790;-61
2023/09/14 03:01:08;;;;;;;7.60;6.20;;;20.10;70.70;;;;;;5092247;28;20054;-61
2023/09/14 03:03:38;;;;;;;7.88;5.45;;;20.10;70.80;;;;;;5092986;28;20031;-62
2023/09/14 03:06:05;;;;;;;7.38;5.38;;;20.10;70.70;;;;;;5108913;27;20031;-62
2023/09/14 03:08:32;;;;;;;6.45;5.47;;;20.10;70.60;;;;;;5094226;27;20043;-62
2023/09/14 03:10:58;;;;;;;7.10;5.93;;;20.20;70.70;;;;;;5100893;27;20557;-62
2023/09/14 03:13:23;;;;;;;10.00;6.50;;;20.10;70.60;;;;;;5119550;27;20080;-61
2023/09/14 03:15:56;;;;;;;11.05;6.53;;;20.10;70.50;;;;;;5112153;27;20035;-63
2023/09/14 03:18:22;;;;;;;7.43;6.32;;;20.10;70.70;;;;;;5109366;27;20080;-61
2023/09/14 03:20:56;;;;;;;10.13;7.00;;;20.10;70.50;;;;;;5104737;27;20031;-61
2023/09/14 03:23:24;;;;;;;10.60;7.37;;;20.10;70.60;;;;;;5083456;28;20076;-62
2023/09/14 03:25:50;;;;;;;10.25;6.97;;;20.10;70.50;;;;;;5107209;27;20432;-62
2023/09/14 03:28:17;;;;;;;10.55;7.68;;;20.10;70.50;;;;;;5109643;27;20057;-63
2023/09/14 03:30:43;;;;;;;8.38;6.60;;;20.10;70.70;;;;;;5109289;27;20028;-63
2023/09/14 03:33:10;;;;;;;9.10;6.40;;;20.10;70.70;;;;;;5105310;27;20102;-62
2023/09/14 03:35:36;;;;;;;9.15;6.63;;;20.00;70.70;;;;;;5102250;27;20381;-64
2023/09/14 03:38:02;;;;;;;8.35;6.68;;;20.00;70.70;;;;;;5108805;27;20027;-62
2023/09/14 03:40:27;;;;;;;11.75;6.70;;;20.00;70.80;;;;;;5105193;27;20423;-63
2023/09/14 03:42:53;;;;;;;8.40;6.70;;;20.00;70.90;;;;;;5113225;27;20031;-62
2023/09/14 03:45:19;;;;;;;8.13;6.45;;;20.10;71.00;;;;;;5005829;28;20055;-62
2023/09/14 03:47:45;;;;;;;7.60;6.05;;;20.00;71.00;;;;;;5104953;28;20019;-62
2023/09/14 03:50:11;;;;;;;10.05;6.82;;;20.00;70.90;;;;;;5108680;28;20446;-61
2023/09/14 03:52:37;;;;;;;11.02;6.82;;;20.00;70.90;;;;;;5105220;28;20024;-62
2023/09/14 03:55:03;;;;;;;9.38;7.13;;;20.10;70.90;;;;;;5097937;28;20032;-62
2023/09/14 03:57:30;;;;;;;10.10;7.25;;;20.00;70.80;;;;;;5103739;28;20024;-63
2023/09/14 03:59:57;;;;;;;7.75;6.40;;;20.10;70.80;;;;;;5096989;28;20470;-61
2023/09/14 04:02:26;;;;;;;14.65;7.10;;;20.00;70.80;;;;;;5106529;28;20068;-62
2023/09/14 04:04:52;;;;;;;12.43;6.78;;;20.00;71.00;;;;;;5098759;28;20513;-62
2023/09/14 04:07:18;;;;;;;11.05;7.07;;;20.00;71.00;;;;;;5098106;28;20051;-62
2023/09/14 04:09:44;;;;;;;9.18;6.93;;;20.00;70.80;;;;;;5104153;28;20172;-63
2023/09/14 04:12:10;;;;;;;9.13;6.90;;;20.00;70.90;;;;;;5108287;28;20030;-63
2023/09/14 04:14:36;;;;;;;10.50;6.93;;;20.00;71.70;;;;;;5105952;28;20039;-62
2023/09/14 04:17:02;;;;;;;10.60;7.10;;;20.00;70.80;;;;;;5102910;28;20023;-62
2023/09/14 04:19:29;;;;;;;10.75;7.45;;;20.00;70.90;;;;;;5102827;28;20486;-62
2023/09/14 04:21:55;;;;;;;9.50;7.32;;;20.00;71.00;;;;;;5107991;28;20706;-62
2023/09/14 04:24:21;;;;;;;12.45;8.02;;;20.00;71.00;;;;;;5102641;28;20359;-62
2023/09/14 04:26:48;;;;;;;8.80;7.00;;;20.00;70.80;;;;;;5117650;27;20046;-61
2023/09/14 04:29:13;;;;;;;10.73;7.63;;;20.00;70.90;;;;;;5107405;27;20023;-61
2023/09/14 04:31:43;;;;;;;10.20;6.82;;;20.00;71.00;;;;;;5108694;28;20029;-61
2023/09/14 04:34:09;;;;;;;10.70;7.47;;;19.90;70.90;;;;;;5114586;27;20023;-61
2023/09/14 04:36:37;;;;;;;10.38;7.85;;;20.00;70.90;;;;;;5107577;27;20394;-61
2023/09/14 04:39:03;;;;;;;11.27;8.20;;;20.00;70.90;;;;;;5110240;27;20023;-62
2023/09/14 04:41:30;;;;;;;11.43;7.78;;;19.90;70.80;;;;;;5107540;27;20548;-62
2023/09/14 04:43:56;;;;;;;10.07;7.53;;;20.00;70.80;;;;;;5085517;28;20024;-61
2023/09/14 04:46:22;;;;;;;12.93;7.88;;;19.90;70.70;;;;;;5101988;27;20401;-62
2023/09/14 04:48:48;;;;;;;10.48;8.23;;;19.90;70.50;;;;;;5105922;28;20035;-61
2023/09/14 04:51:14;;;;;;;11.10;8.68;;;19.90;70.50;;;;;;5111763;27;20020;-61
2023/09/14 04:53:40;;;;;;;11.60;8.13;;;19.90;70.50;;;;;;5102079;27;20033;-62
2023/09/14 04:56:07;;;;;;;13.77;8.32;;;19.90;70.50;;;;;;5107280;28;20036;-62
2023/09/14 04:58:32;;;;;;;10.77;8.35;;;19.90;70.50;;;;;;5105492;28;20068;-62
2023/09/14 05:00:58;;;;;;;9.82;7.72;;;19.90;70.50;;;;;;5086031;28;20020;-62
2023/09/14 05:03:24;;;;;;;13.75;6.90;;;19.90;70.70;;;;;;5110274;27;20065;-61
2023/09/14 05:05:52;;;;;;;13.05;7.95;;;19.80;70.60;;;;;;5112582;27;20032;-62
2023/09/14 05:08:18;;;;;;;11.55;8.65;;;19.80;70.70;;;;;;5101754;27;20493;-62
2023/09/14 05:10:43;;;;;;;13.25;8.90;;;19.80;70.60;;;;;;5108966;27;20055;-61
2023/09/14 05:13:09;;;;;;;13.68;8.52;;;19.80;70.50;;;;;;5106909;27;20028;-61
2023/09/14 05:15:36;;;;;;;11.25;8.27;;;19.80;70.60;;;;;;5105895;27;20038;-62
2023/09/14 05:18:02;;;;;;;10.82;8.70;;;19.70;70.70;;;;;;5102060;28;20513;-61
2023/09/14 05:20:28;;;;;;;10.77;7.80;;;19.70;70.90;;;;;;5102127;27;20059;-62
2023/09/14 05:22:54;;;;;;;12.02;7.72;;;19.70;70.90;;;;;;5103315;27;20123;-64
2023/09/14 05:25:20;;;;;;;10.65;8.07;;;19.70;71.00;;;;;;5107861;27;20024;-61
2023/09/14 05:27:46;;;;;;;9.75;7.60;;;19.60;71.10;;;;;;5109150;27;20665;-62
2023/09/14 05:30:12;;;;;;;9.93;7.60;;;19.60;71.20;;;;;;5114158;27;20088;-60
2023/09/14 05:32:40;;;;;;;9.60;7.60;;;19.60;71.30;;;;;;5111177;27;20032;-62
2023/09/14 05:35:06;;;;;;;9.60;7.82;;;19.70;71.40;;;;;;5103025;28;20067;-61
2023/09/14 05:37:33;;;;;;;11.65;7.78;;;19.70;71.40;;;;;;5108670;27;20023;-61
2023/09/14 05:39:59;;;;;;;10.23;6.75;;;19.70;71.50;;;;;;5109855;27;20482;-62
2023/09/14 05:42:25;;;;;;;8.45;6.60;;;19.70;71.60;;;;;;5104707;27;20055;-61
2023/09/14 05:44:50;;;;;;;9.23;6.65;;;19.80;71.60;;;;;;5018461;27;20997;-62
2023/09/14 05:47:16;;;;;;;9.48;6.30;;;19.80;71.40;;;;;;5105695;27;20482;-62
2023/09/14 05:49:42;;;;;;;10.48;7.80;;;19.80;71.20;;;;;;5106746;27;20363;-62
2023/09/14 05:52:08;;;;;;;9.48;7.53;;;19.80;71.00;;;;;;5105586;27;20359;-62
2023/09/14 05:54:36;;;;;;;9.93;7.60;;;19.80;70.90;;;;;;5114229;27;20078;-61
2023/09/14 05:57:02;;;;;;;12.02;7.53;;;19.80;70.80;;;;;;5097334;28;20360;-62
2023/09/14 05:59:28;;;;;;;8.65;7.30;;;19.90;70.90;;;;;;5108856;27;20114;-62
2023/09/14 06:01:55;;;;;;;13.25;7.40;;;19.80;70.80;;;;;;5109169;27;20451;-62
2023/09/14 06:04:20;;;;;;;9.27;7.35;;;19.90;70.80;;;;;;5114308;27;20035;-62
2023/09/14 06:06:46;;;;;;;10.40;7.35;;;19.80;70.80;;;;;;5103282;27;20030;-61
2023/09/14 06:09:12;;;;;;;10.50;7.72;;;19.90;70.90;;;;;;5107660;27;20031;-61
2023/09/14 06:11:38;;;;;;;10.38;7.78;;;19.90;71.00;;;;;;5107487;27;20024;-63
2023/09/14 06:14:03;;;;;;;12.65;7.13;;;19.90;71.10;;;;;;5113106;27;20036;-63
2023/09/14 06:16:29;;;;;;;12.88;7.90;;;19.90;71.10;;;;;;5089525;27;20020;-61
2023/09/14 06:18:55;;;;;;;13.13;7.78;;;20.00;71.10;;;;;;5108277;27;20032;-63
2023/09/14 06:21:20;;;;;;;9.18;7.35;;;20.00;71.00;;;;;;5118362;27;20467;-63
2023/09/14 06:23:46;;;;;;;12.15;7.18;;;20.00;70.90;;;;;;5106740;27;20034;-61
2023/09/14 06:26:13;;;;;;;15.15;8.52;;;20.10;70.90;;;;;;5110478;27;20530;-61
2023/09/14 06:28:38;;;;;;;10.63;8.43;;;20.10;70.90;;;;;;5103498;27;20024;-62
2023/09/14 06:31:04;;;;;;;9.90;7.60;;;20.20;71.00;;;;;;5102079;27;20486;-61
2023/09/14 06:33:30;;;;;;;11.10;8.18;;;20.20;70.70;;;;;;5106654;27;20038;-62
2023/09/14 06:35:55;;;;;;;12.13;7.72;;;20.30;70.50;;;;;;5103973;27;20043;-62
2023/09/14 06:38:21;;;;;;;12.25;8.50;;;20.30;70.50;;;;;;5118904;27;20031;-62
2023/09/14 06:40:47;;;;;;;11.23;8.38;;;20.30;70.40;;;;;;5094822;28;20527;-63
2023/09/14 06:43:13;;;;;;;11.45;8.23;;;20.30;70.20;;;;;;5105812;27;20247;-62
2023/09/14 06:45:39;;;;;;;18.00;8.38;;;20.40;70.20;;;;;;5107443;27;20031;-61
2023/09/14 06:48:05;;;;;;;10.73;7.80;;;20.40;70.20;;;;;;5109405;27;20032;-61
2023/09/14 06:50:31;;;;;;;12.57;8.40;;;20.40;70.00;;;;;;5100164;27;20028;-63
2023/09/14 06:52:56;;;;;;;11.73;7.45;;;20.40;69.90;;;;;;5107319;27;20118;-62
2023/09/14 06:55:22;;;;;;;9.68;7.07;;;20.50;69.90;;;;;;5100256;28;20180;-62
2023/09/14 06:57:48;;;;;;;10.45;7.45;;;20.50;70.10;;;;;;5106907;27;20054;-62
2023/09/14 07:00:15;;;;;;;10.77;6.90;;;20.60;70.10;;;;;;5094780;27;20031;-63
2023/09/14 07:02:42;;;;;;;11.55;7.63;;;20.60;70.10;;;;;;5105788;27;20035;-63
2023/09/14 07:05:11;;;;;;;9.82;7.68;;;20.70;70.00;;;;;;5122000;27;20347;-62
2023/09/14 07:07:41;;;;;;;10.32;6.82;;;20.70;69.70;;;;;;5090683;28;20359;-61
2023/09/14 07:10:07;;;;;;;12.43;7.78;;;20.80;69.50;;;;;;5105497;27;20099;-61
2023/09/14 07:12:34;;;;;;;10.45;7.78;;;20.90;69.30;;;;;;5107332;27;20387;-62
2023/09/14 07:14:59;;;;;;;12.20;8.20;;;20.90;69.20;;;;;;5114961;27;20070;-61
2023/09/14 07:17:25;;;;;;;9.75;7.30;;;21.00;69.30;;;;;;5103991;28;20016;-62
2023/09/14 07:19:51;;;;;;;10.98;7.65;;;21.00;69.10;;;;;;5101729;27;20032;-62
2023/09/14 07:22:19;;;;;;;9.13;7.07;;;21.00;68.90;;;;;;5106462;28;20051;-61
2023/09/14 07:24:45;;;;;;;12.07;7.30;;;21.10;68.80;;;;;;5107407;27;20051;-61
2023/09/14 07:27:11;;;;;;;10.50;7.30;;;21.10;68.80;;;;;;5093344;28;20564;-62
2023/09/14 07:29:37;;;;;;;11.18;7.53;;;21.20;68.90;;;;;;5112905;27;20370;-62
2023/09/14 07:32:03;;;;;;;10.20;7.85;;;21.20;68.70;;;;;;5101764;27;20382;-61
2023/09/14 07:34:29;;;;;;;11.68;7.45;;;21.20;68.40;;;;;;5101555;28;20397;-62
2023/09/14 07:36:55;;;;;;;9.38;7.03;;;21.30;68.20;;;;;;5110687;27;20139;-62
2023/09/14 07:39:20;;;;;;;11.25;6.88;;;21.30;68.00;;;;;;5112985;27;20324;-63
2023/09/14 07:41:47;;;;;;;8.90;6.18;;;21.30;67.90;;;;;;5110036;27;20019;-62
2023/09/14 07:44:15;;;;;;;8.13;5.85;;;21.40;67.30;;;;;;5110549;27;20408;-62
2023/09/14 07:46:41;;;;;;;8.23;5.80;;;21.40;66.90;;;;;;5108487;27;20066;-63
2023/09/14 07:49:06;;;;;;;7.53;5.40;;;21.30;66.80;;;;;;5100924;27;20051;-63
2023/09/14 07:51:33;;;;;;;6.90;5.10;;;21.40;67.00;;;;;;5086661;28;20544;-62
2023/09/14 07:53:59;;;;;;;6.65;4.60;;;21.30;67.10;;;;;;5113235;27;20038;-62
2023/09/14 07:56:25;;;;;;;8.15;4.80;;;21.30;67.20;;;;;;5108947;28;20065;-63
2023/09/14 07:58:53;;;;;;;5.88;4.68;;;21.40;67.20;;;;;;5102155;28;20023;-63
2023/09/14 08:01:19;;;;;;;8.82;5.50;;;21.40;66.90;;;;;;5113515;28;20486;-62
2023/09/14 08:03:45;;;;;;;9.02;5.10;;;21.40;66.10;;;;;;5106843;28;20036;-62
2023/09/14 08:06:11;;;;;;;7.80;4.50;;;21.50;65.90;;;;;;5102783;28;20072;-61
2023/09/14 08:08:37;;;;;;;6.65;4.47;;;21.40;65.80;;;;;;5109300;28;20503;-63
2023/09/14 08:11:02;;;;;;;5.85;4.05;;;21.40;66.00;;;;;;5105160;28;20025;-61
2023/09/14 08:13:28;;;;;;;7.70;4.38;;;21.40;66.30;;;;;;5101020;28;20084;-63
2023/09/14 08:15:54;;;;;;;11.20;5.05;;;21.40;66.30;;;;;;5086104;28;20384;-63
2023/09/14 08:18:20;;;;;;;5.85;4.30;;;21.40;66.50;;;;;;5106089;28;20028;-63
2023/09/14 08:20:47;;;;;;;10.55;5.10;;;21.50;66.40;;;;;;5113623;28;20038;-62
2023/09/14 08:23:15;;;;;;;9.20;4.80;;;21.50;66.20;;;;;;5107453;28;20031;-63
2023/09/14 08:25:43;;;;;;;8.95;4.38;;;21.60;66.50;;;;;;5083582;28;20047;-62
2023/09/14 08:28:19;;;;;;;8.75;5.75;;;21.70;66.20;;;;;;5110856;28;20334;-63
2023/09/14 08:30:47;;;;;;;6.68;4.88;;;21.80;65.80;;;;;;5106018;28;20401;-62
2023/09/14 08:33:13;;;;;;;6.05;4.78;;;21.90;65.90;;;;;;5111409;28;20608;-62
2023/09/14 08:35:39;;;;;;;7.35;5.30;;;22.00;65.60;;;;;;5102485;28;20036;-62
2023/09/14 08:38:06;;;;;;;8.50;5.35;;;22.00;65.00;;;;;;5111313;28;20106;-62
2023/09/14 08:40:33;;;;;;;8.23;5.53;;;22.10;64.90;;;;;;5086091;28;20028;-62
2023/09/14 08:43:00;;;;;;;7.18;5.15;;;22.10;65.10;;;;;;5102941;28;20604;-62
2023/09/14 08:45:31;;;;;;;7.88;5.50;;;22.20;65.10;;;;;;4997907;28;20020;-62
2023/09/14 08:47:58;;;;;;;7.38;4.68;;;22.30;64.80;;;;;;5110319;28;20027;-62
2023/09/14 08:50:29;;;;;;;6.13;4.38;;;22.30;64.80;;;;;;5087050;28;20110;-62
2023/09/14 08:52:55;;;;;;;7.80;4.97;;;22.40;64.80;;;;;;5101315;28;20027;-62
2023/09/14 08:55:28;;;;;;;6.25;4.32;;;22.50;64.50;;;;;;5104728;28;20066;-62
2023/09/14 08:57:56;;;;;;;5.40;4.07;;;22.60;64.30;;;;;;5106352;28;20106;-62
2023/09/14 09:00:26;;;;;;;6.55;4.53;;;22.70;64.30;;;;;;5104589;28;20490;-62
2023/09/14 09:02:53;;;;;;;9.63;5.00;;;22.70;63.20;;;;;;5103033;28;20019;-62
2023/09/14 09:05:21;;;;;;;6.28;4.45;;;22.70;62.50;;;;;;5108386;27;20032;-62
2023/09/14 09:07:50;;;;;;;6.70;4.63;;;22.80;62.20;;;;;;5108828;27;20035;-63
2023/09/14 09:10:22;;;;;;;10.27;5.07;;;22.90;62.50;;;;;;5113631;27;20015;-62
2023/09/14 09:12:50;;;;;;;7.38;4.55;;;22.90;62.50;;;;;;5103403;28;20039;-63
2023/09/14 09:15:16;;;;;;;4.35;3.95;;;22.90;62.40;;;;;;5103708;28;20032;-63
2023/09/14 09:17:44;;;;;;;7.57;4.78;;;23.00;62.00;;;;;;5108987;27;20331;-61
2023/09/14 09:20:24;;;;;;;5.97;4.57;;;23.00;62.00;;;;;;5109633;27;20061;-62
2023/09/14 09:22:55;;;;;;;6.57;4.28;;;23.10;61.30;;;;;;5104936;27;20470;-62
2023/09/14 09:25:22;;;;;;;10.60;4.40;;;23.10;61.90;;;;;;5102946;27;20098;-63
2023/09/14 09:27:56;;;;;;;5.82;4.70;;;23.20;62.20;;;;;;5112813;27;20027;-62
2023/09/14 09:30:28;;;;;;;9.25;4.65;;;23.30;61.70;;;;;;5113726;27;20031;-63
2023/09/14 09:32:55;;;;;;;5.20;4.18;;;23.40;61.60;;;;;;5100465;28;20015;-62
2023/09/14 09:35:23;;;;;;;6.38;4.40;;;23.50;61.60;;;;;;5103726;27;20035;-62
2023/09/14 09:37:50;;;;;;;8.38;4.55;;;23.60;60.80;;;;;;5105909;27;20090;-62
2023/09/14 09:40:27;;;;;;;6.90;4.32;;;23.70;60.90;;;;;;5110404;27;20426;-62
2023/09/14 09:42:54;;;;;;;6.43;3.92;;;23.80;60.30;;;;;;5109199;27;20019;-63
2023/09/14 09:45:24;;;;;;;4.90;3.63;;;24.00;60.50;;;;;;5026265;27;20031;-62
2023/09/14 09:47:53;;;;;;;7.25;4.13;;;24.10;60.00;;;;;;5107657;27;20390;-63
2023/09/14 09:50:21;;;;;;;5.25;3.55;;;24.20;59.70;;;;;;5103064;27;20482;-62
2023/09/14 09:52:48;;;;;;;4.05;3.10;;;24.40;59.20;;;;;;5101465;27;20389;-63
2023/09/14 09:55:20;;;;;;;4.70;3.63;;;24.50;58.80;;;;;;5103187;27;20032;-63
2023/09/14 09:57:51;;;;;;;4.47;3.05;;;24.50;57.30;;;;;;5103729;27;20055;-62
2023/09/14 10:00:19;;;;;;;6.97;3.40;;;24.50;57.20;;;;;;5092812;27;20496;-62
2023/09/14 10:02:45;;;;;;;6.72;2.90;;;24.50;57.80;;;;;;5104932;27;20023;-63
2023/09/14 10:05:11;;;;;;;5.05;3.13;;;24.50;57.20;;;;;;5109637;27;20034;-62
2023/09/14 10:07:41;;;;;;;7.32;3.35;;;24.50;56.90;;;;;;5095998;27;20044;-62
2023/09/14 10:10:11;;;;;;;6.07;3.00;;;24.60;57.10;;;;;;5089641;27;20032;-64
2023/09/14 10:12:41;;;;;;;3.92;3.00;;;24.70;56.40;;;;;;5094128;27;20031;-62
2023/09/14 10:15:08;;;;;;;5.15;3.35;;;24.80;56.60;;;;;;5101769;27;20172;-62
2023/09/14 10:17:34;;;;;;;3.47;2.67;;;25.00;56.50;;;;;;5110010;27;20023;-63
2023/09/14 10:20:08;;;;;;;3.70;2.70;;;25.00;55.60;;;;;;5103221;27;20452;-62
2023/09/14 10:22:36;;;;;;;3.63;2.55;;;25.00;55.00;;;;;;5107055;27;20026;-62
2023/09/14 10:25:04;;;;;;;5.00;2.63;;;25.10;55.40;;;;;;5106404;27;20021;-63
2023/09/14 10:27:30;;;;;;;3.70;2.30;;;25.10;55.90;;;;;;5109789;27;20034;-64
2023/09/14 10:29:57;;;;;;;3.53;2.30;;;25.30;56.00;;;;;;5105504;27;20058;-62
2023/09/14 10:32:25;;;;;;;3.70;2.35;;;25.50;56.20;;;;;;5095686;27;20027;-62
2023/09/14 10:34:50;;;;;;;3.30;2.65;;;25.70;55.10;;;;;;5103316;28;20512;-62
2023/09/14 10:37:19;;;;;;;3.30;2.55;;;25.90;55.40;;;;;;5104952;28;20062;-62
2023/09/14 10:39:45;;;;;;;3.28;2.72;;;26.10;54.80;;;;;;5110328;27;20019;-63
2023/09/14 10:42:11;;;;;;;2.55;1.98;;;26.30;54.60;;;;;;5108578;27;20101;-63
2023/09/14 10:44:40;;;;;;;2.95;2.33;;;26.40;53.70;;;;;;5051058;27;20115;-62
2023/09/14 10:47:07;;;;;;;3.10;2.58;;;26.50;52.40;;;;;;5089172;28;20031;-62
2023/09/14 10:49:35;;;;;;;4.32;2.40;;;26.50;52.70;;;;;;5110410;27;20508;-61
2023/09/14 10:52:02;;;;;;;4.00;2.17;;;26.60;52.60;;;;;;5104557;27;20020;-64
2023/09/14 10:54:31;;;;;;;3.83;2.30;;;26.60;52.50;;;;;;5104348;27;20022;-63
2023/09/14 10:57:01;;;;;;;3.58;2.63;;;26.60;51.80;;;;;;5108680;27;20027;-62
2023/09/14 10:59:49;;;;;;;3.20;2.22;;;26.60;50.90;;;;;;5103173;27;20011;-63
2023/09/14 11:02:37;;;;;;;5.53;2.45;;;26.60;50.30;;;;;;5114527;27;20027;-64
2023/09/14 11:05:14;;;;;;;3.17;2.13;;;26.60;49.30;;;;;;5103414;27;20417;-62
2023/09/14 11:07:44;;;;;;;2.50;2.17;;;26.50;49.90;;;;;;5110901;27;20043;-62
2023/09/14 11:10:14;;;;;;;6.30;2.22;;;26.50;51.50;;;;;;5104543;28;20394;-62
2023/09/14 11:12:39;;;;;;;3.03;2.00;;;26.40;51.50;;;;;;5108204;27;20030;-62
2023/09/14 11:15:15;;;;;;;3.80;2.30;;;26.40;51.50;;;;;;5107560;27;20044;-63
2023/09/14 11:17:45;;;;;;;3.05;2.25;;;26.40;50.30;;;;;;5099479;27;20417;-62
2023/09/14 11:20:20;;;;;;;4.18;2.08;;;26.30;50.30;;;;;;5108888;27;20027;-61
2023/09/14 11:22:52;;;;;;;3.10;2.35;;;26.20;49.30;;;;;;5109673;27;20080;-63
2023/09/14 11:25:34;;;;;;;4.28;2.20;;;26.00;49.70;;;;;;5104196;27;20418;-62
2023/09/14 11:28:00;;;;;;;2.70;1.80;;;25.80;50.00;;;;;;5105411;27;20058;-62
2023/09/14 11:30:27;;;;;;;2.55;2.05;;;25.60;50.40;;;;;;5111216;27;20041;-61
2023/09/14 11:32:54;;;;;;;2.72;2.00;;;25.40;50.50;;;;;;5098612;28;20035;-63
2023/09/14 11:35:32;;;;;;;3.28;1.88;;;25.10;50.80;;;;;;5106276;27;20378;-62
2023/09/14 11:38:09;;;;;;;4.15;2.55;;;24.90;50.80;;;;;;5103403;27;20028;-62
2023/09/14 11:40:34;;;;;;;2.50;2.10;;;24.80;51.40;;;;;;5108217;27;20027;-62
2023/09/14 11:43:06;;;;;;;2.45;1.83;;;24.70;52.10;;;;;;5099837;28;20052;-62
2023/09/14 11:45:39;;;;;;;2.97;2.30;;;24.60;52.40;;;;;;5000022;28;20367;-62
2023/09/14 11:48:09;;;;;;;4.38;2.30;;;24.50;52.50;;;;;;5097495;28;20394;-62
2023/09/14 11:50:37;;;;;;;5.05;2.75;;;24.50;52.80;;;;;;5104276;27;20027;-62
2023/09/14 11:53:03;;;;;;;4.22;2.65;;;24.50;53.10;;;;;;5107206;28;20020;-62
2023/09/14 11:55:31;;;;;;;2.90;2.35;;;24.50;53.10;;;;;;5109549;28;20031;-63
2023/09/14 11:58:00;;;;;;;6.57;2.40;;;24.50;53.30;;;;;;5110980;28;20394;-64
2023/09/14 12:00:35;;;;;;;2.80;2.38;;;24.50;52.90;;;;;;5111200;28;20096;-63
2023/09/14 12:03:01;;;;;;;2.42;2.03;;;24.50;52.90;;;;;;5106808;28;20020;-64
2023/09/14 12:05:27;;;;;;;6.10;2.20;;;24.50;52.90;;;;;;5107375;28;20568;-63
2023/09/14 12:07:52;;;;;;;2.58;2.38;;;24.60;52.70;;;;;;5107275;28;20059;-63
2023/09/14 12:10:19;;;;;;;2.65;1.95;;;24.70;52.80;;;;;;5109233;28;20024;-62
2023/09/14 12:12:45;;;;;;;2.67;2.33;;;24.80;52.70;;;;;;5111817;28;20387;-62
2023/09/14 12:15:21;;;;;;;2.95;2.25;;;24.90;52.70;;;;;;5100973;28;20062;-63
2023/09/14 12:17:51;;;;;;;2.33;2.05;;;25.00;51.50;;;;;;5103175;28;20110;-62
2023/09/14 12:20:17;;;;;;;2.38;2.17;;;25.10;51.90;;;;;;5108443;28;20130;-64
2023/09/14 12:22:44;;;;;;;3.00;2.20;;;25.30;52.50;;;;;;5100378;28;20028;-62
2023/09/14 12:25:12;;;;;;;1.77;1.65;;;25.40;51.80;;;;;;5108086;28;20500;-63
2023/09/14 12:27:38;;;;;;;3.60;2.22;;;25.60;51.30;;;;;;5102795;28;20043;-63
2023/09/14 12:30:06;;;;;;;2.08;1.80;;;25.80;50.80;;;;;;5109414;28;20027;-61
2023/09/14 12:32:32;;;;;;;2.75;1.70;;;25.90;50.40;;;;;;5097563;28;20032;-63
2023/09/14 12:34:59;;;;;;;4.05;2.20;;;26.10;50.20;;;;;;5108324;28;20028;-61
2023/09/14 12:37:26;;;;;;;3.40;1.60;;;26.20;49.60;;;;;;5109809;28;20080;-62
2023/09/14 12:39:52;;;;;;;2.63;1.50;;;26.30;48.60;;;;;;5098946;28;20393;-63
2023/09/14 12:42:22;;;;;;;2.55;1.67;;;26.30;48.50;;;;;;5114072;27;20020;-62
2023/09/14 12:44:48;;;;;;;2.53;1.70;;;26.30;49.00;;;;;;5033140;27;20760;-63